< Typhoon 196420 1964 Season Typhoon 196422 >
Typhoon 196421 (ANITA)
General InformationTrack Information on Google Maps || Disaster Info.ResourceGoogle EarthGE AnimationAtom FeedGeoJSON
Detalied Best Track (Time Zone = UTC)
Year Month Day Hour Lat. Long. Pressure (hPa) Wind (kt) Class Image Chart
1964 9 23 06 16.5 120.0 1002 0 2 -- Chart
1964 9 23 12 15.8 119.2 1004 0 2 -- Chart
1964 9 23 18 15.2 118.5 1004 0 2 -- Chart
1964 9 24 00 14.5 117.8 1004 0 2 -- Chart
1964 9 24 06 13.8 117.0 1002 0 2 -- Chart
1964 9 24 12 13.1 116.0 1002 0 2 -- Chart
1964 9 24 18 13.2 115.7 1000 0 2 -- Chart
1964 9 25 00 13.3 115.3 1000 0 2 -- Chart
1964 9 25 06 13.3 114.6 998 0 2 -- Chart
1964 9 25 12 13.2 113.2 996 0 9 -- Chart
1964 9 25 18 13.0 111.8 996 0 9 -- Chart
1964 9 26 00 13.8 111.3 996 0 9 -- Chart
1964 9 26 06 14.5 111.2 996 0 9 -- Chart
1964 9 26 12 15.3 110.6 996 0 9 -- Chart
1964 9 26 18 16.0 110.0 996 0 9 -- Chart
1964 9 27 00 16.6 109.2 1000 0 9 -- Chart
1964 9 27 06 16.9 108.2 1000 0 9 -- Chart
1964 9 27 12 17.0 107.5 1000 0 9 -- Chart
1964 9 27 18 17.0 106.5 1002 0 2 -- Chart
1964 9 28 00 17.0 105.5 1004 0 2 -- Chart
1964 9 28 06 17.0 104.5 1006 0 2 -- Chart
Japan Meteorological Agency Best Track Data | Correction Date : 1989-06-01
< Typhoon 196420 1964 Season Typhoon 196422 >

Help